Etusivu
METAR-TAF:

METAR-TAF

Lentoasemat :

Florø, Norja

Leveyspiiri: 61-35N, Pituuspiiri: 005-02E, korkeus merenpinnasta: 0 m

Tämänhetkinen sää

Tämä raportti tehtiin 16 minuuttia sitten, kello 11.20 UTC
Tuuli 7 kn lännestä
Lämpötila 15°C
Kosteus 82%
Ilmanpaine 1012 hPa
Näkyvyys 10 km tai enemmän
Muutamia pilviä 1200 ft:n korkeudessa
Hajanaisia pilviä 1800 ft:n korkeudessa

METAR: ENFL 291120Z 28007KT 9999 FEW012 SCT018 15/12 Q1012

Aika: 13:36 (11:36 UTC)

Sääennuste

Tämä raportti tehtiin 3 tuntia ja 36 minuuttia sitten, kello 08.00 UTC
Ennuste voimassa 29. päivästä klo 09 UTC - 29. päivään klo 18 UTC
Tuuli 7 kn pohjoisen/luoteesta
Näkyvyys 10 km tai enemmän
Hajanaisia pilviä 800 ft:n korkeudessa
Hajonneita pilviä 2000 ft:n korkeudessa

TAF: ENFL 290800Z 2909/2918 34007KT 9999 SCT008 BKN020

Säähavainnot ja -ennusteet yli 4000 lentoasemalta (METAR- ja TAF-raportit).

Käytössä olevat sääasemat on merkitty karttaan keltaisilla ja punaisilla pisteillä.

Aseta hiiri pisteen päälle nähdäksesi sääaseman nimen.

Klikkaa sitten nähdäksesi säähavainnot ja -ennusteet.

Kartan vaihtaminen: klikkaa mustalla rastilla varustettuja vihreitä pisteitä, niin voit zoomata sisään; viivalla varustettua vihreää pistettä, niin voit zoomata ulos tai vihreitä nuolia, niin pääset viereisille kartoille.


METAR-TAF: